CD46 weather

North Arrow Heliport
Fort Collins, Colorado, United States

Public forecast

Using degrees Fahrenheit for public forecast. Weather courtesy of forecast.io.

Closest aviation weather report (METAR) to North Arrow Heliport

Closest report is Northern Colorado Regional Airport, 8.5 nm (15.8 km) SSE. Retrieved 2020/04/06 23:56 UTC (60 minutes ago):

KFNL 062356Z 26017G22KT 10SM CLR 22/M10 A2977 RMK AO2 PK WND 26029/2310 SLP044 T02171100 10233 20200 53001

Closest aviation forecast (TAF) to North Arrow Heliport

Closest forecast is Cheyenne Regional Jerry Olson Field, 35.6 nm (65.8 km) NNE. Retrieved 2020-04-07 00:22 UTC (34 minutes ago):

TAF KCYS 062320Z 0700/0724 26015G25KT P6SM SCT120 FM070200 28012KT P6SM SCT120 FM071600 28022G33KT P6SM SCT120